createdAt,value
2022-12-26T00:01:06.046Z,98301.34
2022-12-26T00:03:33.500Z,98306.06
2022-12-26T00:06:00.946Z,98308.47
2022-12-26T00:08:28.424Z,98307.59
2022-12-26T00:10:55.873Z,98311.22
2022-12-26T00:13:40.151Z,98310.56
2022-12-26T00:16:14.185Z,98312.25
2022-12-26T00:18:42.108Z,98311.75
2022-12-26T00:21:10.959Z,98307.66
2022-12-26T00:23:39.395Z,98313.75
2022-12-26T00:26:18.138Z,98319.69
2022-12-26T00:28:45.867Z,98325.81
2022-12-26T00:31:18.732Z,98320.97
2022-12-26T00:33:46.233Z,98322.47
2022-12-26T00:36:16.222Z,98321.63
2022-12-26T00:38:44.396Z,98320.00
2022-12-26T00:41:12.586Z,98324.22
2022-12-26T00:43:40.479Z,98321.19
2022-12-26T00:46:08.730Z,98328.19
2022-12-26T00:48:36.248Z,98322.34
2022-12-26T00:51:04.141Z,98323.22
2022-12-26T00:53:31.808Z,98321.22
2022-12-26T00:55:59.562Z,98316.38
2022-12-26T00:58:27.002Z,98312.56
2022-12-26T01:00:55.257Z,98317.09
2022-12-26T01:03:22.945Z,98311.97
2022-12-26T01:05:51.657Z,98310.50
2022-12-26T01:08:24.545Z,98320.56
2022-12-26T01:10:53.083Z,98319.09
2022-12-26T01:13:20.538Z,98318.31
2022-12-26T01:15:49.947Z,98321.50
2022-12-26T01:18:17.348Z,98318.91
2022-12-26T01:20:44.713Z,98302.63
2022-12-26T01:23:12.034Z,98300.78
2022-12-26T01:26:16.443Z,98301.81
2022-12-26T01:28:27.735Z,98307.31
2022-12-26T01:30:55.118Z,98309.44
2022-12-26T01:33:22.422Z,98319.31
2022-12-26T01:35:54.000Z,98313.13
2022-12-26T01:38:21.914Z,98317.69
2022-12-26T01:41:10.137Z,98318.53
2022-12-26T01:43:56.995Z,98320.53
2022-12-26T01:46:36.057Z,98314.84
2022-12-26T01:49:20.019Z,98316.53
2022-12-26T01:51:57.930Z,98322.59
2022-12-26T01:54:37.246Z,98313.94
2022-12-26T01:57:11.006Z,98322.34
2022-12-26T01:59:40.643Z,98328.38
2022-12-26T02:02:08.540Z,98316.22
2022-12-26T02:04:59.850Z,98317.78
2022-12-26T02:07:27.627Z,98310.97
2022-12-26T02:09:55.565Z,98313.69
2022-12-26T02:12:38.516Z,98310.22
2022-12-26T02:15:13.071Z,98308.19
2022-12-26T02:17:41.277Z,98313.63
2022-12-26T02:20:26.743Z,98310.97
2022-12-26T02:23:21.118Z,98311.09
2022-12-26T02:26:16.893Z,98300.78
2022-12-26T02:29:02.377Z,98306.63
2022-12-26T02:31:33.381Z,98300.16
2022-12-26T02:34:14.675Z,98296.66
2022-12-26T02:37:11.993Z,98294.72
2022-12-26T02:39:58.575Z,98310.00
2022-12-26T02:42:58.127Z,98303.16
2022-12-26T02:46:03.269Z,98314.81
2022-12-26T02:48:41.094Z,98307.97
2022-12-26T02:51:42.775Z,98312.53
2022-12-26T02:54:54.752Z,98327.44
2022-12-26T02:58:09.628Z,98315.16
2022-12-26T03:00:58.318Z,98312.53
2022-12-26T03:03:48.706Z,98316.50
2022-12-26T03:06:40.736Z,98325.88
2022-12-26T03:09:39.371Z,98322.38
2022-12-26T03:12:36.337Z,98320.81
2022-12-26T03:15:06.213Z,98325.38
2022-12-26T03:17:38.643Z,98328.38
2022-12-26T03:20:13.664Z,98327.53
2022-12-26T03:23:00.388Z,98321.03
2022-12-26T03:25:49.254Z,98319.69
2022-12-26T03:28:17.063Z,98314.78
2022-12-26T03:30:50.285Z,98305.63
2022-12-26T03:33:44.763Z,98313.94
2022-12-26T03:36:35.456Z,98313.31
2022-12-26T03:39:58.578Z,98310.25
2022-12-26T03:43:03.224Z,98311.69
2022-12-26T03:46:04.341Z,98310.38
2022-12-26T03:49:00.064Z,98310.63
2022-12-26T03:52:00.608Z,98313.69
2022-12-26T03:55:11.161Z,98310.66
2022-12-26T03:58:05.617Z,98313.63
2022-12-26T04:00:53.608Z,98320.53
2022-12-26T04:03:41.613Z,98317.88
2022-12-26T04:06:35.732Z,98321.69
2022-12-26T04:09:40.133Z,98319.69
2022-12-26T04:12:28.331Z,98311.56
2022-12-26T04:15:22.516Z,98319.13
2022-12-26T04:18:26.439Z,98325.22
2022-12-26T04:21:05.817Z,98330.28
2022-12-26T04:24:00.985Z,98327.59
2022-12-26T04:26:59.218Z,98336.06
2022-12-26T04:29:45.135Z,98338.84
2022-12-26T04:32:54.368Z,98338.28
2022-12-26T04:35:46.911Z,98343.38
2022-12-26T04:38:35.366Z,98342.38
2022-12-26T04:41:21.669Z,98334.59
2022-12-26T04:44:08.510Z,98334.44
2022-12-26T04:46:44.240Z,98335.97
2022-12-26T04:49:32.937Z,98332.09
2022-12-26T04:52:01.802Z,98333.47
2022-12-26T04:54:29.277Z,98338.38
2022-12-26T04:56:57.015Z,98332.50
2022-12-26T04:59:24.976Z,98340.75
2022-12-26T05:02:11.212Z,98331.53
2022-12-26T05:04:57.312Z,98327.31
2022-12-26T05:07:46.195Z,98325.81
2022-12-26T05:10:23.004Z,98329.50
2022-12-26T05:12:50.612Z,98322.53
2022-12-26T05:15:18.302Z,98328.28
2022-12-26T05:18:04.118Z,98326.84
2022-12-26T05:20:50.560Z,98326.47
2022-12-26T05:23:45.620Z,98337.63
2022-12-26T05:26:37.925Z,98323.88
2022-12-26T05:29:05.660Z,98328.72
2022-12-26T05:31:36.629Z,98337.50
2022-12-26T05:34:05.838Z,98333.03
2022-12-26T05:36:42.552Z,98329.31
2022-12-26T05:39:10.014Z,98328.19
2022-12-26T05:41:38.721Z,98324.16
2022-12-26T05:44:06.647Z,98324.69
2022-12-26T05:46:34.871Z,98322.34
2022-12-26T05:49:02.459Z,98331.97
2022-12-26T05:51:29.829Z,98333.34
2022-12-26T05:53:57.122Z,98326.13
2022-12-26T05:56:24.912Z,98331.16
2022-12-26T05:59:00.022Z,98332.25
2022-12-26T06:01:28.582Z,98342.16
2022-12-26T06:03:57.783Z,98334.09
2022-12-26T06:06:26.009Z,98348.06
2022-12-26T06:08:55.186Z,98334.53
2022-12-26T06:11:23.458Z,98338.81
2022-12-26T06:13:50.840Z,98339.81
2022-12-26T06:16:19.259Z,98342.25
2022-12-26T06:18:48.232Z,98352.75
2022-12-26T06:21:18.264Z,98346.22
2022-12-26T06:23:45.647Z,98345.91
2022-12-26T06:26:13.223Z,98342.31
2022-12-26T06:28:41.932Z,98345.22
2022-12-26T06:31:15.946Z,98345.50
2022-12-26T06:33:43.598Z,98345.59
2022-12-26T06:36:13.718Z,98343.81
2022-12-26T06:38:41.321Z,98350.22
2022-12-26T06:41:10.720Z,98351.09
2022-12-26T06:43:39.011Z,98353.28
2022-12-26T06:46:08.055Z,98350.69
2022-12-26T06:48:39.811Z,98351.28
2022-12-26T06:51:15.813Z,98349.22
2022-12-26T06:53:44.494Z,98347.31
2022-12-26T06:56:17.110Z,98351.09
2022-12-26T06:58:44.943Z,98342.56
2022-12-26T07:01:17.740Z,98349.25
2022-12-26T07:03:51.165Z,98343.81
2022-12-26T07:06:21.365Z,98346.88
2022-12-26T07:08:49.350Z,98348.88
2022-12-26T07:11:18.430Z,98354.75
2022-12-26T07:13:46.006Z,98349.41
2022-12-26T07:16:14.110Z,98352.50
2022-12-26T07:18:41.657Z,98360.69
2022-12-26T07:21:11.296Z,98365.06
2022-12-26T07:23:38.604Z,98359.16
2022-12-26T07:26:06.252Z,98353.28
2022-12-26T07:28:33.817Z,98368.16
2022-12-26T07:31:01.265Z,98362.91
2022-12-26T07:33:29.510Z,98362.63
2022-12-26T07:36:01.291Z,98359.72
2022-12-26T07:38:28.650Z,98352.56
2022-12-26T07:40:56.796Z,98356.56
2022-12-26T07:43:24.741Z,98356.41
2022-12-26T07:45:52.382Z,98359.78
2022-12-26T07:48:19.697Z,98359.78
2022-12-26T07:50:49.247Z,98364.06
2022-12-26T07:53:16.624Z,98351.00
2022-12-26T07:55:43.997Z,98358.63
2022-12-26T07:58:11.384Z,98366.56
2022-12-26T08:00:38.703Z,98364.94
2022-12-26T08:03:08.107Z,98357.19
2022-12-26T08:05:35.999Z,98357.31
2022-12-26T08:08:03.469Z,98348.09
2022-12-26T08:10:30.814Z,98352.78
2022-12-26T08:12:58.162Z,98357.06
2022-12-26T08:15:25.615Z,98354.31
2022-12-26T08:17:52.955Z,98358.28
2022-12-26T08:20:20.286Z,98356.69
2022-12-26T08:22:47.596Z,98357.84
2022-12-26T08:25:18.306Z,98358.13
2022-12-26T08:27:49.071Z,98359.84
2022-12-26T08:30:16.682Z,98363.78
2022-12-26T08:32:46.356Z,98370.19
2022-12-26T08:35:14.024Z,98369.66
2022-12-26T08:37:41.519Z,98369.81
2022-12-26T08:40:09.304Z,98370.91
2022-12-26T08:42:44.705Z,98381.00
2022-12-26T08:45:17.879Z,98375.91
2022-12-26T08:47:45.311Z,98395.16
2022-12-26T08:50:13.781Z,98394.47
2022-12-26T08:52:41.162Z,98390.97
2022-12-26T08:55:09.417Z,98398.91
2022-12-26T08:57:37.066Z,98397.97
2022-12-26T09:00:06.070Z,98413.69
2022-12-26T09:02:33.672Z,98411.03
2022-12-26T09:05:01.191Z,98416.84
2022-12-26T09:07:28.604Z,98430.06
2022-12-26T09:09:55.970Z,98426.81
2022-12-26T09:12:23.294Z,98433.00
2022-12-26T09:14:50.662Z,98435.31
2022-12-26T09:17:18.140Z,98448.38
2022-12-26T09:19:45.717Z,98458.47
2022-12-26T09:22:35.143Z,98458.19
2022-12-26T09:25:02.775Z,98460.25
2022-12-26T09:27:30.173Z,98461.91
2022-12-26T09:29:57.527Z,98467.78
2022-12-26T09:32:24.882Z,98467.53
2022-12-26T09:34:52.251Z,98483.25
2022-12-26T09:37:19.713Z,98476.88
2022-12-26T09:39:47.006Z,98493.41
2022-12-26T09:42:49.566Z,98487.53
2022-12-26T09:45:18.922Z,98482.44
2022-12-26T09:48:20.431Z,98488.50
2022-12-26T09:50:50.710Z,98494.63
2022-12-26T09:53:35.143Z,98509.50
2022-12-26T09:56:04.261Z,98510.25
2022-12-26T09:58:35.798Z,98512.06
2022-12-26T10:01:20.734Z,98523.59
2022-12-26T10:03:54.160Z,98514.38
2022-12-26T10:06:27.003Z,98519.66
2022-12-26T10:09:38.952Z,98529.31
2022-12-26T10:12:09.007Z,98524.78
2022-12-26T10:14:56.105Z,98530.78
2022-12-26T10:18:15.781Z,98544.44
2022-12-26T10:21:28.103Z,98536.06
2022-12-26T10:24:08.488Z,98541.56
2022-12-26T10:26:42.340Z,98526.56
2022-12-26T10:29:09.617Z,98509.00
2022-12-26T10:31:57.459Z,98516.56
2022-12-26T10:34:31.202Z,98525.66
2022-12-26T10:37:27.771Z,98524.41
2022-12-26T10:40:19.944Z,98529.88
2022-12-26T10:42:55.074Z,98535.03
2022-12-26T10:45:36.752Z,98538.81
2022-12-26T10:48:04.400Z,98537.53
2022-12-26T10:50:34.910Z,98538.53
2022-12-26T10:53:05.396Z,98537.25
2022-12-26T10:55:35.201Z,98543.72
2022-12-26T10:58:25.014Z,98548.78
2022-12-26T11:00:52.426Z,98557.75
2022-12-26T11:03:23.242Z,98551.75
2022-12-26T11:06:07.589Z,98554.16
2022-12-26T11:08:43.387Z,98562.81
2022-12-26T11:11:21.425Z,98552.00
2022-12-26T11:14:03.421Z,98552.97
2022-12-26T11:16:39.166Z,98544.06
2022-12-26T11:19:06.808Z,98541.34
2022-12-26T11:21:34.534Z,98528.69
2022-12-26T11:24:07.973Z,98529.88
2022-12-26T11:26:35.353Z,98529.34
2022-12-26T11:29:17.148Z,98534.53
2022-12-26T11:31:56.423Z,98515.94
2022-12-26T11:34:34.604Z,98499.41
2022-12-26T11:37:02.153Z,98498.44
2022-12-26T11:39:35.339Z,98506.25
2022-12-26T11:42:15.897Z,98486.81
2022-12-26T11:44:45.577Z,98482.28
2022-12-26T11:47:16.018Z,98508.56
2022-12-26T11:49:46.276Z,98519.94
2022-12-26T11:52:39.158Z,98517.19
2022-12-26T11:55:38.166Z,98509.63
2022-12-26T11:58:22.926Z,98524.38
2022-12-26T12:00:50.219Z,98531.94
2022-12-26T12:03:18.767Z,98532.34
2022-12-26T12:06:02.172Z,98507.44
2022-12-26T12:08:42.439Z,98501.09
2022-12-26T12:11:32.593Z,98505.69
2022-12-26T12:14:31.913Z,98505.47
2022-12-26T12:17:12.089Z,98501.66
2022-12-26T12:19:44.882Z,98494.56
2022-12-26T12:22:33.730Z,98491.00
2022-12-26T12:25:22.927Z,98489.09
2022-12-26T12:28:07.057Z,98479.28
2022-12-26T12:30:59.510Z,98491.16
2022-12-26T12:33:32.950Z,98492.38
2022-12-26T12:36:35.162Z,98491.06
2022-12-26T12:39:13.027Z,98482.31
2022-12-26T12:42:05.154Z,98474.13
2022-12-26T12:44:57.391Z,98475.06
2022-12-26T12:47:46.773Z,98478.78
2022-12-26T12:50:37.921Z,98477.00
2022-12-26T12:53:36.851Z,98474.84
2022-12-26T12:56:42.118Z,98473.06
2022-12-26T12:59:21.769Z,98476.16
2022-12-26T13:01:52.465Z,98477.81
2022-12-26T13:04:34.909Z,98488.03
2022-12-26T13:07:27.231Z,98487.69
2022-12-26T13:10:03.634Z,98480.41
2022-12-26T13:12:40.835Z,98481.69
2022-12-26T13:15:29.974Z,98492.84
2022-12-26T13:18:18.979Z,98486.03
2022-12-26T13:20:56.251Z,98480.84
2022-12-26T13:23:52.196Z,98490.59
2022-12-26T13:26:39.309Z,98480.41
2022-12-26T13:29:18.276Z,98479.09
2022-12-26T13:31:46.278Z,98477.28
2022-12-26T13:34:18.966Z,98471.06
2022-12-26T13:36:47.398Z,98466.84
2022-12-26T13:39:23.843Z,98462.88
2022-12-26T13:42:27.945Z,98465.16
2022-12-26T13:44:55.669Z,98460.25
2022-12-26T13:47:39.442Z,98459.41
2022-12-26T13:50:51.588Z,98462.78
2022-12-26T13:53:25.384Z,98462.06
2022-12-26T13:55:52.911Z,98466.00
2022-12-26T13:58:22.957Z,98470.72
2022-12-26T14:00:50.823Z,98463.38
2022-12-26T14:03:31.017Z,98465.03
2022-12-26T14:06:20.178Z,98476.59
2022-12-26T14:09:02.462Z,98473.09
2022-12-26T14:11:36.037Z,98472.97
2022-12-26T14:14:06.421Z,98471.91
2022-12-26T14:17:18.520Z,98468.41
2022-12-26T14:19:53.313Z,98469.50
2022-12-26T14:22:36.915Z,98466.84
2022-12-26T14:25:27.009Z,98463.25
2022-12-26T14:28:18.630Z,98461.81
2022-12-26T14:31:22.007Z,98472.97
2022-12-26T14:34:31.330Z,98467.44
2022-12-26T14:37:22.698Z,98464.00
2022-12-26T14:40:20.976Z,98464.09
2022-12-26T14:43:22.111Z,98456.53
2022-12-26T14:45:53.599Z,98458.09
2022-12-26T14:48:23.959Z,98462.66
2022-12-26T14:51:04.281Z,98456.41
2022-12-26T14:53:36.263Z,98451.97
2022-12-26T14:56:10.539Z,98465.28
2022-12-26T14:59:32.142Z,98464.06
2022-12-26T15:02:02.567Z,98458.78
2022-12-26T15:05:08.893Z,98455.19
2022-12-26T15:08:03.720Z,98447.13
2022-12-26T15:10:39.978Z,98446.53
2022-12-26T15:13:10.334Z,98442.47
2022-12-26T15:16:06.827Z,98444.28
2022-12-26T15:19:00.505Z,98441.66
2022-12-26T15:22:06.065Z,98439.09
2022-12-26T15:25:18.167Z,98435.50
2022-12-26T15:28:02.931Z,98433.47
2022-12-26T15:31:17.082Z,98434.81
2022-12-26T15:33:59.268Z,98431.63
2022-12-26T15:36:48.182Z,98442.00
2022-12-26T15:39:27.117Z,98446.78
2022-12-26T15:42:09.825Z,98458.69
2022-12-26T15:45:08.878Z,98451.34
2022-12-26T15:47:52.368Z,98442.44
2022-12-26T15:50:22.438Z,98452.28
2022-12-26T15:52:59.277Z,98453.63
2022-12-26T15:55:45.485Z,98447.72
2022-12-26T15:58:31.143Z,98457.56
2022-12-26T16:00:58.759Z,98458.53
2022-12-26T16:03:46.322Z,98454.09
2022-12-26T16:06:29.314Z,98453.75
2022-12-26T16:09:02.516Z,98457.72
2022-12-26T16:11:57.149Z,98464.44
2022-12-26T16:14:26.123Z,98469.97
2022-12-26T16:16:53.734Z,98468.53
2022-12-26T16:19:23.720Z,98455.56
2022-12-26T16:22:17.267Z,98446.66
2022-12-26T16:24:45.121Z,98454.44
2022-12-26T16:27:18.671Z,98459.00
2022-12-26T16:30:11.999Z,98459.13
2022-12-26T16:32:41.737Z,98459.28
2022-12-26T16:35:37.357Z,98458.78
2022-12-26T16:38:06.788Z,98458.56
2022-12-26T16:40:41.826Z,98462.78
2022-12-26T16:43:18.318Z,98472.88
2022-12-26T16:45:51.460Z,98470.31
2022-12-26T16:48:26.122Z,98472.47
2022-12-26T16:50:59.797Z,98463.72
2022-12-26T16:53:36.274Z,98471.31
2022-12-26T16:56:26.788Z,98472.84
2022-12-26T16:59:15.354Z,98464.75
2022-12-26T17:01:50.606Z,98475.81
2022-12-26T17:04:26.395Z,98463.44
2022-12-26T17:06:57.931Z,98481.34
2022-12-26T17:09:27.798Z,98479.88
2022-12-26T17:12:03.700Z,98484.03
2022-12-26T17:14:40.074Z,98465.75
2022-12-26T17:17:29.410Z,98473.72
2022-12-26T17:19:59.064Z,98476.34
2022-12-26T17:22:31.534Z,98477.50
2022-12-26T17:25:17.186Z,98468.09
2022-12-26T17:27:45.566Z,98477.78
2022-12-26T17:30:31.063Z,98480.97
2022-12-26T17:33:25.597Z,98482.88
2022-12-26T17:37:19.236Z,98488.50
2022-12-26T17:38:54.543Z,98508.03
2022-12-26T17:41:21.649Z,98503.59
2022-12-26T17:43:49.216Z,98505.50
2022-12-26T17:46:17.909Z,98512.69
2022-12-26T17:48:45.819Z,98496.31
2022-12-26T17:51:16.522Z,98505.50
2022-12-26T17:53:49.334Z,98504.28
2022-12-26T17:56:22.636Z,98512.50
2022-12-26T17:58:50.478Z,98524.53
2022-12-26T18:01:21.284Z,98528.75
2022-12-26T18:03:49.465Z,98524.34
2022-12-26T18:06:17.404Z,98513.94
2022-12-26T18:08:45.310Z,98522.59
2022-12-26T18:11:14.304Z,98509.72
2022-12-26T18:13:42.985Z,98530.81
2022-12-26T18:16:17.251Z,98529.53
2022-12-26T18:18:46.348Z,98515.59
2022-12-26T18:21:15.689Z,98515.00
2022-12-26T18:23:43.240Z,98514.47
2022-12-26T18:26:24.355Z,98515.41
2022-12-26T18:28:52.239Z,98514.47
2022-12-26T18:31:19.811Z,98523.22
2022-12-26T18:33:46.771Z,98523.53
2022-12-26T18:36:15.411Z,98521.00
2022-12-26T18:38:43.114Z,98526.09
2022-12-26T18:41:20.643Z,98539.06
2022-12-26T18:43:48.483Z,98544.09
2022-12-26T18:46:21.910Z,98574.81
2022-12-26T18:48:50.918Z,98598.53
2022-12-26T18:51:19.426Z,98619.94
2022-12-26T18:53:47.140Z,98627.13
2022-12-26T18:56:18.481Z,98616.03
2022-12-26T18:58:57.100Z,98632.47
2022-12-26T19:01:25.461Z,98618.63
2022-12-26T19:03:53.959Z,98607.31
2022-12-26T19:06:26.609Z,98613.00
2022-12-26T19:08:54.177Z,98623.41
2022-12-26T19:11:21.922Z,98623.50
2022-12-26T19:13:49.301Z,98635.75
2022-12-26T19:16:17.002Z,98640.59
2022-12-26T19:18:44.500Z,98648.78
2022-12-26T19:21:13.556Z,98661.56
2022-12-26T19:23:41.724Z,98655.34
2022-12-26T19:26:14.879Z,98663.16
2022-12-26T19:28:42.414Z,98676.41
2022-12-26T19:31:12.144Z,98686.25
2022-12-26T19:33:39.703Z,98693.47
2022-12-26T19:36:08.264Z,98693.78
2022-12-26T19:38:35.789Z,98701.88
2022-12-26T19:41:08.058Z,98701.63
2022-12-26T19:43:35.874Z,98700.66
2022-12-26T19:46:05.581Z,98708.31
2022-12-26T19:48:34.336Z,98718.09
2022-12-26T19:51:09.815Z,98723.00
2022-12-26T19:53:38.047Z,98733.66
2022-12-26T19:56:10.032Z,98741.63
2022-12-26T19:58:38.173Z,98743.59
2022-12-26T20:01:27.017Z,98738.75
2022-12-26T20:03:59.274Z,98744.28
2022-12-26T20:06:27.963Z,98758.41
2022-12-26T20:08:57.873Z,98760.44
2022-12-26T20:11:29.997Z,98774.63
2022-12-26T20:13:57.709Z,98775.31
2022-12-26T20:19:13.760Z,98778.41
2022-12-26T20:21:41.141Z,98782.06
2022-12-26T20:24:10.428Z,98789.22
2022-12-26T20:26:38.076Z,98788.25
2022-12-26T20:29:05.651Z,98784.16
2022-12-26T20:31:33.848Z,98794.00
2022-12-26T20:34:01.692Z,98787.88
2022-12-26T20:36:34.086Z,98795.69
2022-12-26T20:39:04.495Z,98793.91
2022-12-26T20:41:31.937Z,98806.31
2022-12-26T20:43:59.501Z,98794.06
2022-12-26T20:46:32.602Z,98810.63
2022-12-26T20:49:02.570Z,98814.38
2022-12-26T20:51:36.817Z,98816.16
2022-12-26T20:54:06.612Z,98818.97
2022-12-26T20:56:34.686Z,98826.88
2022-12-26T20:59:02.076Z,98829.69
2022-12-26T21:01:29.716Z,98849.88
2022-12-26T21:03:57.591Z,98850.53
2022-12-26T21:06:26.382Z,98864.16
2022-12-26T21:08:54.160Z,98864.16
2022-12-26T21:11:27.226Z,98874.75
2022-12-26T21:13:57.627Z,98878.63
2022-12-26T21:16:49.109Z,98886.97
2022-12-26T21:19:17.183Z,98893.91
2022-12-26T21:21:46.984Z,98894.59
2022-12-26T21:24:19.038Z,98889.59
2022-12-26T21:26:47.269Z,98900.13
2022-12-26T21:29:17.139Z,98897.22
2022-12-26T21:31:45.064Z,98903.34
2022-12-26T21:34:14.670Z,98907.75
2022-12-26T21:37:02.705Z,98911.50
2022-12-26T21:39:31.023Z,98919.47
2022-12-26T21:41:58.572Z,98911.75
2022-12-26T21:44:26.001Z,98919.31
2022-12-26T21:46:53.481Z,98924.72
2022-12-26T21:49:20.911Z,98928.31
2022-12-26T21:51:48.292Z,98933.91
2022-12-26T21:54:34.162Z,98942.91
2022-12-26T21:57:01.519Z,98936.97
2022-12-26T21:59:47.333Z,98947.84
2022-12-26T22:02:34.223Z,98949.88
2022-12-26T22:05:02.025Z,98962.78
2022-12-26T22:07:29.659Z,98968.09
2022-12-26T22:09:57.019Z,98972.88
2022-12-26T22:12:43.042Z,98983.13
2022-12-26T22:15:31.003Z,98965.97
2022-12-26T22:17:58.524Z,98959.84
2022-12-26T22:20:25.823Z,98961.03
2022-12-26T22:22:53.325Z,98980.50
2022-12-26T22:25:20.827Z,98976.78
2022-12-26T22:27:48.235Z,98994.69
2022-12-26T22:30:15.595Z,98999.13
2022-12-26T22:32:42.866Z,99000.31
2022-12-26T22:35:16.522Z,98995.28
2022-12-26T22:37:45.814Z,98991.81
2022-12-26T22:40:13.372Z,98993.13
2022-12-26T22:42:40.738Z,98999.88
2022-12-26T22:45:08.634Z,98993.53
2022-12-26T22:47:35.952Z,99007.41
2022-12-26T22:50:03.363Z,99010.41
2022-12-26T22:52:30.676Z,99018.22
2022-12-26T22:54:57.998Z,99015.94
2022-12-26T22:57:25.324Z,99011.81
2022-12-26T23:00:09.572Z,99023.88
2022-12-26T23:02:38.114Z,99031.75
2022-12-26T23:05:06.373Z,99026.56
2022-12-26T23:07:33.949Z,99034.44
2022-12-26T23:10:01.447Z,99032.53
2022-12-26T23:12:44.207Z,99043.16
2022-12-26T23:15:14.488Z,99048.59
2022-12-26T23:18:05.377Z,99054.94
2022-12-26T23:20:53.738Z,99047.81
2022-12-26T23:23:21.939Z,99060.19
2022-12-26T23:25:49.596Z,99057.84
2022-12-26T23:28:35.662Z,99061.47
2022-12-26T23:31:05.792Z,99073.00
2022-12-26T23:33:33.505Z,99074.22
2022-12-26T23:36:00.888Z,99063.31
2022-12-26T23:38:28.282Z,99073.44
2022-12-26T23:40:55.665Z,99074.59
2022-12-26T23:43:23.137Z,99078.38
2022-12-26T23:45:50.489Z,99095.13
2022-12-26T23:48:17.883Z,99093.19
2022-12-26T23:50:45.419Z,99096.13
2022-12-26T23:53:12.710Z,99105.38
2022-12-26T23:55:42.841Z,99100.13
2022-12-26T23:58:10.305Z,99102.84
